Latest Weather Observations for Albury

IDN60801

Issued at 5:03 pm EST Wednesday 20 September 2017 (issued every 30 minutes, with the page automatically refreshed every 10 minutes)

About weather observations | Map of weather stations | Latest weather observations for NSW | Other Formats
Station Details ID: 072160 Name: ALBURY AIRPORT AWS Lat: -36.07 Lon: 146.95 Height: 163.5 m
Data from the previous 72 hours. | See also: Recent months at Albury
Date/Time
EST
Temp
°C
App
Temp
°C
Dew
Point
°C
Rel
Hum
%
Delta-T
°C
Wind Press
QNH
hPa
Press
MSL
hPa
Rain since
9am
mm
Dir  Spd
km/h
Gust
km/h
Spd
kts
Gust
kts
20/05:00pm 15.5 12.1 6.0 53 4.6 W 13 15 7 8 1018.2 1018.3 0.0
20/04:30pm 16.3 13.3 6.2 51 4.9 WNW 11 17 6 9 1018.0 1018.0 0.0
20/04:00pm 16.5 13.2 6.3 51 5.0 WNW 13 17 7 9 1018.1 1018.1 0.0
20/03:30pm 16.7 13.6 5.6 48 5.4 W 11 15 6 8 1018.2 1018.3 0.0
20/03:00pm 16.4 13.4 6.2 51 5.0 N 11 19 6 10 1018.1 1018.1 0.0
20/02:30pm 16.1 13.0 7.1 55 4.5 WSW 13 20 7 11 1018.4 1018.5 0.0
20/02:00pm 16.3 13.6 7.3 55 4.5 WNW 11 19 6 10 1018.7 1018.8 0.0
20/01:30pm 15.6 12.8 6.9 56 4.3 W 11 19 6 10 1019.5 1019.6 0.0
20/01:00pm 14.5 11.7 5.3 54 4.4 SW 9 13 5 7 1019.8 1019.9 0.0
20/12:30pm 14.5 12.3 5.3 54 4.4 ESE 6 11 3 6 1020.3 1020.4 0.0
20/12:00pm 13.4 11.1 4.8 56 4.0 NNE 6 11 3 6 1020.8 1020.9 0.0
20/11:30am 12.6 10.1 4.6 58 3.7 S 7 11 4 6 1021.4 1021.5 0.0
20/11:00am 11.7 9.1 4.2 60 3.4 SE 7 13 4 7 1021.6 1021.7 0.0
20/10:30am 11.5 9.1 5.4 66 2.8 NNE 7 11 4 6 1022.3 1022.3 0.0
20/10:00am 10.6 8.5 5.6 71 2.3 SSE 6 7 3 4 1022.9 1022.9 0.0
20/09:30am 10.5 8.8 5.7 72 2.2 NE 4 9 2 5 1023.3 1023.3 0.0
20/09:00am 8.9 6.9 4.5 74 2.0 SE 4 11 2 6 1023.5 1023.6 0.0
20/08:30am 7.2 5.9 4.2 81 1.3 CALM 0 0 0 0 1023.5 1023.6 0.0
20/08:00am 5.8 4.0 3.5 85 1.0 SE 2 6 1 3 1023.5 1023.6 0.0
20/07:30am 4.5 2.6 2.8 89 0.7 E 2 7 1 4 1023.4 1023.5 0.0
20/07:00am 3.2 1.3 3.1 99 0.0 ENE 2 6 1 3 1023.2 1023.2 0.0
20/06:30am 0.7 -1.2 0.3 97 0.1 CALM 0 0 0 0 1022.8 1022.8 0.0
20/06:00am 0.7 -1.3 0.1 96 0.2 CALM 0 0 0 0 1022.3 1022.3 0.0
20/05:30am 1.4 -0.4 1.0 97 0.2 CALM 0 0 0 0 1022.0 1022.1 0.0
20/05:00am 1.7 -0.1 1.3 97 0.2 CALM 0 0 0 0 1021.5 1021.6 0.0
20/04:30am 1.2 -0.7 0.5 95 0.3 CALM 0 0 0 0 1021.2 1021.3 0.0
20/04:00am 2.0 0.2 1.4 96 0.2 CALM 0 6 0 3 1021.4 1021.5 0.0
20/03:30am 2.2 0.5 1.8 97 0.2 CALM 0 6 0 3 1021.4 1021.5 0.0
20/03:00am 2.2 0.5 1.9 98 0.1 CALM 0 0 0 0 1021.5 1021.6 0.0
20/02:30am 2.5 0.8 2.1 97 0.2 CALM 0 0 0 0 1021.4 1021.5 0.0
20/02:00am 2.5 0.8 1.8 95 0.3 CALM 0 0 0 0 1021.6 1021.7 0.0
20/01:30am 2.8 1.2 2.5 98 0.1 CALM 0 4 0 2 1021.7 1021.8 0.0
20/01:19am 3.6 1.4 3.2 97 0.2 SW 4 6 2 3 1021.7 1021.8 0.0
20/01:01am 2.7 -0.3 2.1 96 0.2 S 7 7 4 4 1021.7 1021.8 0.0
20/01:00am 2.9 -0.1 2.3 96 0.2 S 7 7 4 4 1021.7 1021.8 0.0
20/12:30am 3.6 0.7 2.4 92 0.5 ENE 7 7 4 4 1021.7 1021.8 0.0
20/12:00am 4.4 2.9 3.1 91 0.5 CALM 0 6 0 3 1021.6 1021.7 0.0
 
Date/Time
EST
Temp
°C
App
Temp
°C
Dew
Point
°C
Rel
Hum
%
Delta-T
°C
Wind Press
QNH
hPa
Press
MSL
hPa
Rain since
9am
mm
Dir  Spd
km/h
Gust
km/h
Spd
kts
Gust
kts
19/11:30pm 4.8 3.4 3.3 90 0.6 CALM 0 0 0 0 1021.7 1021.8 0.0
19/11:00pm 4.5 3.0 2.8 89 0.7 CALM 0 0 0 0 1021.7 1021.8 0.0
19/10:30pm 4.6 1.7 2.5 86 0.9 ENE 7 9 4 5 1021.7 1021.8 0.0
19/10:00pm 5.3 3.0 2.8 84 1.0 ENE 4 6 2 3 1022.0 1022.1 0.0
19/09:30pm 6.3 4.4 3.1 80 1.3 ENE 2 6 1 3 1021.9 1022.0 0.0
19/09:00pm 7.7 5.0 3.6 75 1.8 WSW 7 9 4 5 1021.7 1021.8 0.0
19/08:30pm 8.1 5.3 3.4 72 2.0 W 7 9 4 5 1021.6 1021.7 0.0
19/08:00pm 9.0 6.3 3.8 70 2.3 W 7 9 4 5 1021.3 1021.4 0.0
19/07:30pm 8.5 5.0 3.4 70 2.2 WNW 11 13 6 7 1021.1 1021.2 0.0
19/07:00pm 9.7 6.6 3.7 66 2.6 WNW 9 11 5 6 1020.9 1021.0 0.0
19/06:30pm 10.8 7.7 3.6 61 3.2 WNW 9 11 5 6 1020.8 1020.9 0.0
19/06:00pm 11.9 8.0 3.4 56 3.8 W 13 22 7 12 1020.5 1020.6 0.0
19/05:30pm 12.4 8.9 3.4 54 4.0 W 11 17 6 9 1020.2 1020.3 0.0
19/05:00pm 12.4 7.7 3.4 54 4.0 W 17 22 9 12 1020.1 1020.2 0.0
19/04:30pm 12.7 7.5 3.4 53 4.2 WSW 20 28 11 15 1019.7 1019.8 0.0
19/04:00pm 13.7 7.7 3.5 50 4.6 WSW 24 35 13 19 1019.6 1019.7 0.0
19/03:30pm 13.2 7.2 3.6 52 4.4 W 24 32 13 17 1019.5 1019.6 0.0
19/03:00pm 14.6 9.0 3.4 47 5.1 W 22 33 12 18 1019.2 1019.3 0.0
19/02:30pm 14.5 8.4 2.7 45 5.3 WSW 24 37 13 20 1019.4 1019.5 0.0
19/02:00pm 14.2 8.3 3.9 50 4.7 W 24 32 13 17 1019.5 1019.6 0.0
19/01:30pm 13.1 7.5 3.5 52 4.3 WSW 22 39 12 21 1019.3 1019.4 0.0
19/01:00pm 13.7 7.5 4.3 53 4.3 WNW 26 33 14 18 1019.1 1019.2 0.0
19/12:30pm 13.5 6.9 4.1 53 4.3 W 28 39 15 21 1019.3 1019.4 0.0
19/12:00pm 12.8 8.3 5.9 63 3.3 W 19 28 10 15 1019.4 1019.5 0.0
19/11:30am 12.4 7.4 4.4 58 3.7 W 20 28 11 15 1019.4 1019.5 0.0
19/11:00am 12.5 7.7 5.4 62 3.3 WNW 20 28 11 15 1019.4 1019.5 0.0
19/10:30am 11.4 6.2 5.3 66 2.8 W 22 32 12 17 1019.6 1019.7 0.0
19/10:00am 11.2 6.6 5.5 68 2.6 WNW 19 28 10 15 1019.6 1019.7 0.0
19/09:50am 11.1 6.0 6.0 71 2.4 W 22 30 12 16 1019.6 1019.7 0.0
19/09:30am 10.5 5.8 5.9 73 2.1 W 20 32 11 17 1019.6 1019.7 0.0
19/09:18am 10.3 5.7 6.3 76 1.9 W 20 30 11 16 1019.6 1019.7 0.0
19/09:00am 9.6 5.0 5.8 77 1.8 W 19 30 10 16 1019.4 1019.5 1.0
19/08:30am 9.1 4.5 5.7 79 1.6 W 19 26 10 14 1019.2 1019.3 1.0
19/08:00am 7.8 3.8 4.9 82 1.3 W 15 24 8 13 1018.7 1018.8 1.0
19/07:30am 7.4 4.7 5.4 87 0.9 WSW 9 17 5 9 1018.2 1018.3 1.0
19/07:00am 6.6 3.7 4.8 88 0.8 W 9 17 5 9 1017.9 1017.9 1.0
19/06:30am 6.6 2.2 4.9 89 0.7 W 17 28 9 15 1017.4 1017.4 1.0
19/06:11am 6.8 2.4 5.0 88 0.8 WNW 17 24 9 13 1016.9 1016.9 1.0
19/06:00am 7.0 2.3 5.2 88 0.8 W 19 28 10 15 1016.7 1016.7 1.0
19/05:30am 7.6 2.4 5.6 87 0.9 W 22 32 12 17 1016.2 1016.2 1.0
19/05:29am 7.7 2.2 5.7 87 0.9 W 24 33 13 18 1016.2 1016.2 1.0
19/05:09am 8.0 2.9 5.8 86 1.0 W 22 32 12 17 1016.0 1016.0 1.0
19/05:00am 8.3 2.8 6.1 86 1.0 WNW 24 32 13 17 1015.8 1015.8 1.0
19/04:49am 8.5 3.1 6.3 86 1.0 W 24 33 13 18 1015.6 1015.7 1.0
19/04:30am 8.9 3.5 6.5 85 1.1 W 24 35 13 19 1015.2 1015.3 1.0
19/04:00am 9.0 3.7 6.6 85 1.1 WNW 24 32 13 17 1015.1 1015.2 1.0
19/03:30am 9.3 4.7 6.6 83 1.3 W 20 32 11 17 1014.5 1014.6 1.0
19/03:00am 9.0 6.2 7.0 87 0.9 NW 11 17 6 9 1014.4 1014.5 1.0
19/02:30am 9.4 6.6 7.0 85 1.1 NNE 11 17 6 9 1013.1 1013.2 1.0
19/02:29am 9.5 7.1 6.8 83 1.3 N 9 17 5 9 1013.3 1013.4 1.0
19/02:00am 10.3 7.5 6.8 79 1.7 WNW 11 20 6 11 1015.3 1015.4 0.0
19/01:30am 11.4 6.9 7.1 75 2.1 W 20 30 11 16 1015.1 1015.2 0.0
19/01:00am 12.5 7.1 6.3 66 3.0 W 24 35 13 19 1014.8 1014.9 0.0
19/12:30am 13.5 8.0 6.1 61 3.5 WSW 24 39 13 21 1014.4 1014.5 0.0
19/12:00am 14.1 8.2 6.0 58 3.9 WSW 26 39 14 21 1014.3 1014.4 0.0
 
Date/Time
EST
Temp
°C
App
Temp
°C
Dew
Point
°C
Rel
Hum
%
Delta-T
°C
Wind Press
QNH
hPa
Press
MSL
hPa
Rain since
9am
mm
Dir  Spd
km/h
Gust
km/h
Spd
kts
Gust
kts
18/11:30pm 14.8 10.2 6.6 58 4.0 WSW 20 33 11 18 1014.5 1014.6 0.0
18/11:00pm 15.4 9.3 6.7 56 4.3 WSW 28 44 15 24 1014.0 1014.1 0.0
18/10:55pm 15.6 8.7 6.3 54 4.5 WSW 32 50 17 27 1014.1 1014.2 0.0
18/10:45pm 16.0 8.9 6.2 52 4.8 WSW 33 48 18 26 1014.0 1014.1 0.0
18/10:30pm 16.3 11.0 5.0 47 5.4 WSW 22 30 12 16 1013.7 1013.8 0.0
18/10:00pm 17.1 11.0 2.7 38 6.6 W 24 32 13 17 1013.3 1013.4 0.0
18/09:34pm 18.9 11.3 -2.1 24 8.9 WNW 28 46 15 25 1012.7 1012.7 0.0
18/09:30pm 18.6 11.4 -1.8 25 8.7 W 26 39 14 21 1012.6 1012.6 0.0
18/09:22pm 17.4 11.8 1.0 33 7.3 NW 20 39 11 21 1012.7 1012.7 0.0
18/09:00pm 15.7 11.0 3.2 43 5.7 NNE 17 20 9 11 1011.7 1011.7 0.0
18/08:30pm 15.8 11.9 3.6 44 5.7 NNE 13 19 7 10 1012.1 1012.1 0.0
18/08:00pm 16.0 12.6 4.1 45 5.6 NNE 11 17 6 9 1012.7 1012.7 0.0
18/07:30pm 15.9 12.2 4.6 47 5.3 NE 13 20 7 11 1012.7 1012.7 0.0
18/07:00pm 15.4 12.4 4.2 47 5.2 NNE 9 20 5 11 1012.8 1012.8 0.0
18/06:30pm 16.6 12.2 4.6 45 5.7 NE 17 22 9 12 1012.7 1012.7 0.0
18/06:00pm 16.9 13.2 4.3 43 6.0 NE 13 19 7 10 1013.1 1013.2 0.0
18/05:30pm 18.3 14.2 4.1 39 6.8 NE 15 19 8 10 1013.0 1013.0 0.0
18/05:00pm 19.5 14.9 3.6 35 7.6 NE 17 22 9 12 1013.0 1013.0 0.0
18/04:30pm 20.4 15.6 2.7 31 8.3 NE 17 22 9 12 1013.3 1013.4 0.0
18/04:00pm 20.5 16.0 4.1 34 8.0 NE 17 26 9 14 1013.7 1013.8 0.0
18/03:30pm 21.1 16.2 4.2 33 8.2 NE 19 26 10 14 1014.1 1014.2 0.0
18/03:00pm 21.0 16.0 4.6 34 8.1 NE 20 32 11 17 1014.7 1014.8 0.0
18/02:30pm 20.8 16.3 4.4 34 8.0 NE 17 30 9 16 1015.4 1015.5 0.0
18/02:00pm 20.3 13.6 1.7 29 8.6 NNE 26 39 14 21 1016.1 1016.1 0.0
18/01:30pm 19.9 13.9 3.2 33 7.9 NNE 24 35 13 19 1016.9 1016.9 0.0
18/01:00pm 19.4 13.6 2.3 32 7.9 NNE 22 33 12 18 1017.7 1017.7 0.0
18/12:30pm 19.2 14.1 4.2 37 7.2 NNE 20 30 11 16 1018.4 1018.5 0.0
18/12:00pm 19.2 14.3 5.3 40 6.8 NNE 20 28 11 15 1019.1 1019.2 0.0
18/11:30am 17.7 13.5 5.6 45 5.9 NE 17 24 9 13 1019.9 1020.0 0.0
18/11:00am 15.5 12.4 7.3 58 4.1 E 13 22 7 12 1020.6 1020.7 0.0
18/10:30am 13.6 10.6 6.2 61 3.6 E 11 13 6 7 1021.1 1021.2 0.0
18/10:00am 12.4 9.8 6.0 65 3.0 E 9 15 5 8 1021.7 1021.8 0.0
18/09:30am 10.9 8.2 5.4 69 2.5 E 9 15 5 8 1022.0 1022.1 0.0
18/09:00am 9.4 6.6 5.0 74 2.0 SE 9 13 5 7 1022.5 1022.5 0.0
18/08:30am 8.4 5.5 4.8 78 1.6 E 9 11 5 6 1022.4 1022.4 0.0
18/08:00am 7.0 5.7 4.0 81 1.3 CALM 0 4 0 2 1022.6 1022.6 0.0
18/07:30am 4.0 2.5 3.0 93 0.4 CALM 0 0 0 0 1022.6 1022.6 0.0
18/07:00am 2.0 0.3 1.7 98 0.1 CALM 0 0 0 0 1022.9 1022.9 0.0
18/06:30am 1.1 -0.8 0.8 98 0.1 CALM 0 0 0 0 1022.9 1022.9 0.0
18/06:00am 0.9 -2.3 0.5 97 0.1 NNE 7 9 4 5 1022.8 1022.8 0.0
18/05:30am 0.8 -1.9 0.2 96 0.2 NNW 4 7 2 4 1022.8 1022.8 0.0
18/05:00am 1.0 -0.9 0.4 96 0.2 CALM 0 0 0 0 1022.6 1022.6 0.0
18/04:30am 0.7 -2.5 -0.2 94 0.3 NNW 6 6 3 3 1022.6 1022.6 0.0
18/04:00am 1.9 0.1 1.3 96 0.2 CALM 0 0 0 0 1022.7 1022.7 0.0
18/03:30am 2.0 -0.9 1.3 95 0.3 N 6 6 3 3 1022.8 1022.8 0.0
18/03:00am 2.3 -0.8 1.4 94 0.3 NNW 7 7 4 4 1023.3 1023.3 0.0
18/02:30am 2.8 -0.1 1.6 92 0.5 NNW 6 7 3 4 1023.5 1023.6 0.0
18/02:00am 3.7 1.0 2.5 92 0.5 E 6 7 3 4 1023.7 1023.8 0.0
18/01:30am 2.8 -0.1 1.6 92 0.5 N 6 7 3 4 1024.0 1024.1 0.0
18/01:00am 2.8 -0.3 1.2 89 0.6 NNE 7 7 4 4 1024.2 1024.3 0.0
18/12:30am 3.8 1.1 2.5 91 0.5 N 6 7 3 4 1024.3 1024.4 0.0
18/12:00am 3.5 0.8 2.6 94 0.4 E 6 9 3 5 1024.3 1024.4 0.0
 
Date/Time
EST
Temp
°C
App
Temp
°C
Dew
Point
°C
Rel
Hum
%
Delta-T
°C
Wind Press
QNH
hPa
Press
MSL
hPa
Rain since
9am
mm
Dir  Spd
km/h
Gust
km/h
Spd
kts
Gust
kts
17/11:30pm 4.0 2.5 2.8 92 0.5 CALM 0 0 0 0 1024.5 1024.6 0.0
17/11:00pm 4.4 2.9 3.1 91 0.5 CALM 0 0 0 0 1024.7 1024.8 0.0
17/10:30pm 5.0 3.5 3.2 88 0.7 CALM 0 0 0 0 1024.6 1024.7 0.0
17/10:00pm 4.9 2.6 2.6 85 0.9 N 4 7 2 4 1024.6 1024.7 0.0
17/09:30pm 5.4 3.1 2.8 83 1.1 N 4 7 2 4 1024.6 1024.7 0.0
17/09:00pm 5.7 4.2 2.9 82 1.2 CALM 0 4 0 2 1024.7 1024.8 0.0
17/08:30pm 7.5 5.4 4.1 79 1.5 N 4 7 2 4 1024.6 1024.7 0.0
17/08:00pm 7.4 6.1 4.0 79 1.5 CALM 0 0 0 0 1024.6 1024.7 0.0
17/07:30pm 9.0 7.9 5.0 76 1.8 CALM 0 0 0 0 1024.3 1024.4 0.0
17/07:00pm 8.7 6.6 4.1 73 2.0 NE 4 7 2 4 1024.1 1024.2 0.0
17/06:30pm 10.0 7.5 4.0 66 2.7 S 6 7 3 4 1024.2 1024.3 0.0
17/06:00pm 12.7 10.1 4.2 56 3.9 SSE 7 9 4 5 1023.9 1024.0 0.0
17/05:30pm 13.8 10.9 4.4 53 4.4 SSE 9 11 5 6 1024.0 1024.1 0.0

Other Formats:

Comma delimited format used in spreadsheet applications
http://www.bom.gov.au/fwo/IDN60801/IDN60801.95896.axf

JavaScript Object Notation format (JSON) in row-major order
http://www.bom.gov.au/fwo/IDN60801/IDN60801.95896.json